Time;durP1;ratioP1;P1;durP2;ratioP2;P2;SDS_P1;SDS_P2;PMS_P1;PMS_P2;Temp;Humidity;BMP_temperature;BMP_pressure;BME280_temperature;BME280_humidity;BME280_pressure;Samples;Min_cycle;Max_cycle;Signal;HPM_P1;HPM_P2
2023/11/09 00:00:09;;;;;;;;;;;11.40;68.50;;;;;;5032298;28;88699;-51
2023/11/09 00:02:34;;;;;;;;;;;11.40;68.50;;;;;;5036446;28;87464;-48
2023/11/09 00:05:01;;;;;;;;;;;11.40;68.50;;;;;;5033758;28;87275;-53
2023/11/09 00:07:28;;;;;;;;;;;11.40;68.60;;;;;;5034624;28;88959;-53
2023/11/09 00:09:54;;;;;;;;;;;11.40;68.50;;;;;;5035065;28;90281;-50
2023/11/09 00:12:19;;;;;;;;;;;11.40;68.60;;;;;;5037219;28;88868;-51
2023/11/09 00:14:48;;;;;;;;;;;11.40;68.50;;;;;;5029913;28;88125;-48
2023/11/09 00:17:14;;;;;;;;;;;11.40;68.50;;;;;;5032494;27;87133;-53
2023/11/09 00:19:39;;;;;;;;;;;11.40;68.60;;;;;;5034610;28;87570;-54
2023/11/09 00:22:05;;;;;;;;;;;11.40;68.50;;;;;;5032098;27;88122;-49
2023/11/09 00:24:30;;;;;;;;;;;11.30;68.50;;;;;;5037783;28;87251;-48
2023/11/09 00:26:57;;;;;;;;;;;11.40;68.60;;;;;;5032192;28;87409;-52
2023/11/09 00:29:23;;;;;;;;;;;11.30;68.60;;;;;;5035520;28;87784;-52
2023/11/09 00:31:48;;;;;;;;;;;11.30;68.60;;;;;;5032210;28;87122;-50
2023/11/09 00:34:14;;;;;;;;;;;11.30;68.60;;;;;;5036297;28;88091;-51
2023/11/09 00:36:40;;;;;;;;;;;11.30;68.50;;;;;;5037192;28;87203;-51
2023/11/09 00:39:07;;;;;;;;;;;11.30;68.60;;;;;;5031768;28;88968;-50
2023/11/09 00:41:33;;;;;;;;;;;11.30;68.70;;;;;;5034386;28;89858;-56
2023/11/09 00:43:58;;;;;;;;;;;11.30;68.50;;;;;;5032881;27;86901;-53
2023/11/09 00:46:24;;;;;;;;;;;11.30;68.60;;;;;;5035078;27;87405;-50
2023/11/09 00:48:50;;;;;;;;;;;11.30;68.50;;;;;;5034894;28;87161;-53
2023/11/09 00:51:17;;;;;;;;;;;11.20;68.50;;;;;;5031332;28;86359;-48
2023/11/09 00:53:43;;;;;;;;;;;11.30;68.50;;;;;;5034059;28;86924;-49
2023/11/09 00:56:08;;;;;;;;;;;11.20;68.40;;;;;;5034971;28;88204;-51
2023/11/09 00:58:34;;;;;;;;;;;11.20;68.50;;;;;;5034517;28;88817;-53
2023/11/09 01:00:59;;;;;;;;;;;11.20;68.40;;;;;;5033725;28;88286;-47
2023/11/09 01:03:26;;;;;;;;;;;11.20;68.40;;;;;;5033076;27;86838;-50
2023/11/09 01:05:53;;;;;;;;;;;11.20;68.40;;;;;;5032956;28;87474;-52
2023/11/09 01:08:18;;;;;;;;;;;11.20;68.40;;;;;;5033090;27;88450;-53
2023/11/09 01:10:44;;;;;;;;;;;11.20;68.40;;;;;;5035223;28;87113;-52
2023/11/09 01:13:10;;;;;;;;;;;11.20;68.40;;;;;;5032992;28;87446;-51
2023/11/09 01:15:36;;;;;;;;;;;11.10;68.50;;;;;;5033466;27;87147;-50
2023/11/09 01:18:03;;;;;;;;;;;11.10;68.30;;;;;;5037861;28;87136;-54
2023/11/09 01:20:29;;;;;;;;;;;11.10;68.40;;;;;;5033345;28;88071;-52
2023/11/09 01:22:55;;;;;;;;;;;11.10;68.20;;;;;;5032168;28;87997;-54
2023/11/09 01:25:20;;;;;;;;;;;11.10;68.20;;;;;;5034980;28;87931;-49
2023/11/09 01:27:46;;;;;;;;;;;11.10;68.10;;;;;;5033270;28;88090;-52
2023/11/09 01:30:11;;;;;;;;;;;11.10;68.20;;;;;;5032576;28;87146;-51
2023/11/09 01:32:37;;;;;;;;;;;11.10;68.10;;;;;;5034927;28;87420;-56
2023/11/09 01:35:03;;;;;;;;;;;11.10;68.10;;;;;;5033244;28;88191;-49
2023/11/09 01:37:28;;;;;;;;;;;11.10;68.10;;;;;;5035194;27;87531;-54
2023/11/09 01:39:54;;;;;;;;;;;11.10;68.20;;;;;;5032477;28;86551;-53
2023/11/09 01:42:19;;;;;;;;;;;11.10;68.20;;;;;;5033231;27;87141;-51
2023/11/09 01:44:45;;;;;;;;;;;11.00;68.20;;;;;;5034738;28;87025;-51
2023/11/09 01:47:10;;;;;;;;;;;11.00;68.10;;;;;;5031090;28;90367;-52
2023/11/09 01:49:36;;;;;;;;;;;11.00;68.10;;;;;;5033210;28;87072;-51
2023/11/09 01:52:02;;;;;;;;;;;11.00;68.20;;;;;;5034142;28;87050;-53
2023/11/09 01:54:30;;;;;;;;;;;11.00;68.20;;;;;;5031602;28;89578;-49
2023/11/09 01:56:56;;;;;;;;;;;11.00;68.20;;;;;;5032441;27;87073;-50
2023/11/09 01:59:23;;;;;;;;;;;11.00;68.10;;;;;;5036926;28;87410;-54
2023/11/09 02:01:52;;;;;;;;;;;11.00;68.20;;;;;;5032738;28;87098;-54
2023/11/09 02:04:18;;;;;;;;;;;10.90;68.10;;;;;;5032111;27;88632;-55
2023/11/09 02:06:45;;;;;;;;;;;10.90;68.20;;;;;;5033566;27;88227;-49
2023/11/09 02:09:12;;;;;;;;;;;10.90;68.20;;;;;;5032207;27;87159;-50
2023/11/09 02:11:38;;;;;;;;;;;10.90;68.20;;;;;;5030503;28;88041;-53
2023/11/09 02:14:03;;;;;;;;;;;10.90;68.10;;;;;;5033094;28;88240;-52
2023/11/09 02:16:29;;;;;;;;;;;10.90;68.00;;;;;;5033931;28;87139;-51
2023/11/09 02:18:56;;;;;;;;;;;10.90;68.10;;;;;;5031263;27;88414;-53
2023/11/09 02:21:23;;;;;;;;;;;10.90;68.10;;;;;;5034454;28;88031;-51
2023/11/09 02:23:50;;;;;;;;;;;10.80;68.10;;;;;;5030995;28;87778;-52
2023/11/09 02:26:16;;;;;;;;;;;10.80;68.10;;;;;;5031646;28;88253;-50
2023/11/09 02:28:44;;;;;;;;;;;10.80;68.10;;;;;;5034279;27;86354;-53
2023/11/09 02:31:10;;;;;;;;;;;10.80;68.10;;;;;;5031473;28;87068;-50
2023/11/09 02:33:35;;;;;;;;;;;10.80;68.10;;;;;;5032073;28;88008;-53
2023/11/09 02:36:01;;;;;;;;;;;10.80;68.10;;;;;;5033222;28;88874;-50
2023/11/09 02:38:27;;;;;;;;;;;10.80;68.10;;;;;;5030179;28;88451;-56
2023/11/09 02:40:52;;;;;;;;;;;10.80;68.10;;;;;;5032127;27;89736;-48
2023/11/09 02:43:18;;;;;;;;;;;10.70;68.00;;;;;;5037558;28;87101;-49
2023/11/09 02:45:45;;;;;;;;;;;10.70;67.90;;;;;;5030319;28;89432;-56
2023/11/09 02:48:10;;;;;;;;;;;10.80;68.10;;;;;;5032773;28;87169;-53
2023/11/09 02:50:36;;;;;;;;;;;10.70;68.10;;;;;;5033281;27;88792;-56
2023/11/09 02:53:02;;;;;;;;;;;10.70;68.00;;;;;;5030870;28;87208;-54
2023/11/09 02:55:27;;;;;;;;;;;10.70;67.90;;;;;;5032817;28;87673;-53
2023/11/09 02:57:53;;;;;;;;;;;10.70;67.90;;;;;;5032479;27;89142;-52
2023/11/09 03:00:18;;;;;;;;;;;10.70;68.00;;;;;;5030810;28;89008;-47
2023/11/09 03:02:44;;;;;;;;;;;10.70;67.90;;;;;;5032724;28;87158;-50
2023/11/09 03:05:09;;;;;;;;;;;10.70;68.00;;;;;;5032084;27;88770;-49
2023/11/09 03:07:35;;;;;;;;;;;10.70;68.10;;;;;;5033228;28;87285;-53
2023/11/09 03:10:01;;;;;;;;;;;10.60;68.00;;;;;;5034143;28;88547;-53
2023/11/09 03:12:26;;;;;;;;;;;10.60;68.00;;;;;;5032957;28;88159;-49
2023/11/09 03:14:52;;;;;;;;;;;10.60;68.00;;;;;;5030950;27;87160;-56
2023/11/09 03:17:20;;;;;;;;;;;10.60;68.10;;;;;;5031562;28;88675;-50
2023/11/09 03:19:46;;;;;;;;;;;10.60;67.90;;;;;;5034327;28;89532;-50
2023/11/09 03:22:12;;;;;;;;;;;10.60;67.90;;;;;;5033311;28;87256;-50
2023/11/09 03:24:40;;;;;;;;;;;10.60;67.90;;;;;;5036124;28;88782;-49
2023/11/09 03:27:09;;;;;;;;;;;10.60;67.90;;;;;;5037510;28;89408;-50
2023/11/09 03:29:35;;;;;;;;;;;10.60;67.80;;;;;;5033040;28;87061;-48
2023/11/09 03:32:01;;;;;;;;;;;10.60;67.80;;;;;;5036713;28;88411;-53
2023/11/09 03:34:26;;;;;;;;;;;10.50;67.80;;;;;;5035597;28;87142;-55
2023/11/09 03:36:52;;;;;;;;;;;10.50;67.70;;;;;;5038010;28;88832;-51
2023/11/09 03:39:19;;;;;;;;;;;10.50;67.70;;;;;;5034703;27;88895;-52
2023/11/09 03:41:46;;;;;;;;;;;10.50;67.70;;;;;;5035727;28;86396;-46
2023/11/09 03:44:14;;;;;;;;;;;10.40;67.90;;;;;;5033820;27;88300;-47
2023/11/09 03:46:40;;;;;;;;;;;10.50;67.80;;;;;;5038701;28;88201;-54
2023/11/09 03:49:07;;;;;;;;;;;10.40;67.80;;;;;;5032255;28;87997;-50
2023/11/09 03:51:33;;;;;;;;;;;10.40;67.70;;;;;;5039600;28;88906;-55
2023/11/09 03:53:59;;;;;;;;;;;10.40;67.70;;;;;;5032711;28;87104;-53
2023/11/09 03:56:24;;;;;;;;;;;10.40;68.30;;;;;;5035720;28;88707;-53
2023/11/09 03:58:51;;;;;;;;;;;10.40;67.70;;;;;;5033133;28;88265;-48
2023/11/09 04:01:17;;;;;;;;;;;10.40;67.80;;;;;;5034536;27;87122;-54
2023/11/09 04:03:43;;;;;;;;;;;10.40;67.80;;;;;;5036112;28;87365;-52
2023/11/09 04:06:14;;;;;;;;;;;10.40;67.80;;;;;;5034498;28;87331;-50
2023/11/09 04:08:39;;;;;;;;;;;10.40;67.80;;;;;;5036507;27;87000;-53
2023/11/09 04:11:05;;;;;;;;;;;10.30;67.80;;;;;;5033522;28;88123;-53
2023/11/09 04:13:31;;;;;;;;;;;10.30;67.70;;;;;;5033502;27;87924;-53
2023/11/09 04:15:57;;;;;;;;;;;10.30;67.80;;;;;;5036209;28;88293;-52
2023/11/09 04:18:22;;;;;;;;;;;10.30;67.70;;;;;;5033467;28;88757;-51
2023/11/09 04:20:48;;;;;;;;;;;10.30;67.70;;;;;;5034487;28;87111;-50
2023/11/09 04:23:13;;;;;;;;;;;10.30;67.60;;;;;;5036096;28;87440;-49
2023/11/09 04:25:39;;;;;;;;;;;10.20;67.70;;;;;;5033358;28;89382;-49
2023/11/09 04:28:04;;;;;;;;;;;10.20;67.70;;;;;;5034410;28;87149;-50
2023/11/09 04:30:30;;;;;;;;;;;10.30;67.60;;;;;;5038838;28;86961;-55
2023/11/09 04:32:57;;;;;;;;;;;10.20;67.60;;;;;;5032816;28;87162;-54
2023/11/09 04:35:24;;;;;;;;;;;10.20;67.60;;;;;;5035630;27;89116;-49
2023/11/09 04:37:54;;;;;;;;;;;10.20;67.60;;;;;;5033021;27;88754;-51
2023/11/09 04:40:22;;;;;;;;;;;10.20;67.50;;;;;;5033948;27;87074;-49
2023/11/09 04:42:49;;;;;;;;;;;10.20;67.60;;;;;;5036937;28;87355;-53
2023/11/09 04:45:16;;;;;;;;;;;10.20;67.50;;;;;;5048845;27;91697;-51
2023/11/09 04:47:43;;;;;;;;;;;10.10;67.50;;;;;;5035563;28;87022;-55
2023/11/09 04:50:15;;;;;;;;;;;10.10;67.50;;;;;;5036362;28;87414;-50
2023/11/09 04:52:44;;;;;;;;;;;10.00;68.20;;;;;;5035519;28;88086;-53
2023/11/09 04:55:20;;;;;;;;;;;10.10;67.70;;;;;;5033714;28;86453;-52
2023/11/09 05:08:42;;;;;;;;;;;10.00;67.50;;;;;;5032572;28;87028;-50
2023/11/09 05:11:11;;;;;;;;;;;10.00;67.50;;;;;;5034078;27;87963;-52
2023/11/09 05:13:36;;;;;;;;;;;10.00;67.50;;;;;;5034465;28;88466;-54
2023/11/09 05:16:02;;;;;;;;;;;10.00;67.50;;;;;;5035982;28;87177;-54
2023/11/09 05:18:28;;;;;;;;;;;10.00;67.40;;;;;;5032812;27;89130;-51
2023/11/09 05:20:54;;;;;;;;;;;9.90;67.50;;;;;;5035559;28;86423;-51
2023/11/09 05:23:20;;;;;;;;;;;9.90;67.70;;;;;;5030941;28;87989;-51
2023/11/09 05:25:46;;;;;;;;;;;9.90;67.50;;;;;;5033741;28;88072;-51
2023/11/09 05:28:12;;;;;;;;;;;9.90;67.50;;;;;;5031827;28;88270;-51
2023/11/09 05:30:38;;;;;;;;;;;9.90;67.50;;;;;;5034028;28;88199;-50
2023/11/09 05:33:04;;;;;;;;;;;9.90;67.30;;;;;;5033716;28;89290;-50
2023/11/09 05:35:30;;;;;;;;;;;9.90;67.40;;;;;;5032311;27;87319;-54
2023/11/09 05:37:57;;;;;;;;;;;9.90;67.40;;;;;;5035299;27;88808;-54
2023/11/09 05:40:22;;;;;;;;;;;9.90;67.40;;;;;;5032718;27;87208;-54
2023/11/09 05:42:48;;;;;;;;;;;9.90;67.40;;;;;;5034352;27;88611;-48
2023/11/09 05:45:14;;;;;;;;;;;9.90;67.30;;;;;;5031975;28;88466;-53
2023/11/09 05:47:40;;;;;;;;;;;9.90;67.30;;;;;;5033463;27;88862;-53
2023/11/09 05:50:06;;;;;;;;;;;9.90;67.30;;;;;;5031007;28;87520;-53
2023/11/09 05:52:32;;;;;;;;;;;9.90;67.20;;;;;;5030812;28;90103;-50
2023/11/09 05:54:57;;;;;;;;;;;9.80;67.20;;;;;;5034457;28;88244;-55
2023/11/09 05:57:23;;;;;;;;;;;9.80;67.20;;;;;;5033007;28;88899;-49
2023/11/09 05:59:48;;;;;;;;;;;9.80;67.30;;;;;;5028349;28;87162;-55
2023/11/09 06:02:14;;;;;;;;;;;9.80;67.20;;;;;;5035936;28;88705;-53
2023/11/09 06:04:42;;;;;;;;;;;9.80;67.20;;;;;;5028942;28;87344;-53
2023/11/09 06:07:11;;;;;;;;;;;9.80;67.90;;;;;;5030343;28;87819;-54
2023/11/09 06:09:39;;;;;;;;;;;9.70;67.30;;;;;;5035073;27;89043;-51
2023/11/09 06:12:06;;;;;;;;;;;9.80;67.30;;;;;;5029023;28;88222;-50
2023/11/09 06:14:31;;;;;;;;;;;9.80;67.20;;;;;;5027879;27;87122;-51
2023/11/09 06:16:57;;;;;;;;;;;9.70;67.20;;;;;;5033217;28;88803;-52
2023/11/09 06:19:22;;;;;;;;;;;9.80;67.20;;;;;;5030923;28;87973;-57
2023/11/09 06:21:51;;;;;;;;;;;9.70;67.10;;;;;;5034443;28;87987;-51
2023/11/09 06:24:17;;;;;;;;;;;9.80;67.10;;;;;;5031729;27;89063;-53
2023/11/09 06:26:43;;;;;;;;;;;9.70;67.10;;;;;;5027947;27;87199;-49
2023/11/09 06:29:09;;;;;;;;;;;9.70;67.10;;;;;;5034622;27;87893;-53
2023/11/09 06:31:34;;;;;;;;;;;9.70;67.10;;;;;;5029939;28;88492;-53
2023/11/09 06:34:00;;;;;;;;;;;9.70;67.10;;;;;;5031160;27;88070;-51
2023/11/09 06:36:27;;;;;;;;;;;9.60;67.10;;;;;;5035366;28;87761;-54
2023/11/09 06:38:52;;;;;;;;;;;9.70;67.10;;;;;;5030261;27;89818;-53
2023/11/09 06:41:18;;;;;;;;;;;9.70;67.10;;;;;;5030862;28;88063;-57
2023/11/09 06:43:44;;;;;;;;;;;9.70;67.10;;;;;;5034439;28;87724;-56
2023/11/09 06:46:09;;;;;;;;;;;9.70;67.10;;;;;;5029745;27;87049;-53
2023/11/09 06:48:35;;;;;;;;;;;9.70;67.20;;;;;;5036511;28;88527;-54
2023/11/09 06:51:01;;;;;;;;;;;9.70;67.00;;;;;;5032720;28;87177;-52
2023/11/09 06:53:26;;;;;;;;;;;9.70;67.00;;;;;;5029554;27;87718;-52
2023/11/09 06:55:52;;;;;;;;;;;9.70;67.00;;;;;;5038154;28;87761;-52
2023/11/09 06:58:18;;;;;;;;;;;9.70;67.60;;;;;;5038026;28;87279;-54
2023/11/09 07:00:43;;;;;;;;;;;9.60;67.00;;;;;;5037221;28;89086;-53
2023/11/09 07:03:09;;;;;;;;;;;9.60;67.00;;;;;;5038688;28;87181;-56
2023/11/09 07:05:39;;;;;;;;;;;9.60;67.10;;;;;;5031754;28;88751;-53
2023/11/09 07:08:05;;;;;;;;;;;9.60;67.20;;;;;;5040383;27;89404;-54
2023/11/09 07:10:30;;;;;;;;;;;9.60;67.20;;;;;;5032760;28;88129;-54
2023/11/09 07:12:56;;;;;;;;;;;9.60;67.30;;;;;;5034037;28;87117;-52
2023/11/09 07:15:23;;;;;;;;;;;9.50;67.30;;;;;;5038034;27;88743;-50
2023/11/09 07:17:49;;;;;;;;;;;9.60;67.30;;;;;;5033857;27;89529;-53
2023/11/09 07:20:14;;;;;;;;;;;9.50;67.20;;;;;;5036210;27;87180;-48
2023/11/09 07:22:40;;;;;;;;;;;9.50;67.40;;;;;;5038099;28;87451;-52
2023/11/09 07:25:08;;;;;;;;;;;9.50;67.40;;;;;;5038412;28;88488;-50
2023/11/09 07:27:34;;;;;;;;;;;9.50;67.40;;;;;;5031186;28;88886;-53
2023/11/09 07:30:00;;;;;;;;;;;9.50;67.50;;;;;;5034838;28;90514;-53
2023/11/09 07:32:28;;;;;;;;;;;9.50;67.50;;;;;;5038244;28;87768;-57
2023/11/09 07:34:54;;;;;;;;;;;9.50;67.50;;;;;;5036238;27;87954;-55
2023/11/09 07:37:20;;;;;;;;;;;9.50;67.50;;;;;;5038541;27;88291;-49
2023/11/09 07:39:45;;;;;;;;;;;9.50;67.60;;;;;;5033239;28;87149;-55
2023/11/09 07:42:11;;;;;;;;;;;9.50;67.60;;;;;;5033357;27;87566;-52
2023/11/09 07:44:36;;;;;;;;;;;9.40;68.20;;;;;;5033778;28;87209;-49
2023/11/09 07:47:02;;;;;;;;;;;9.40;67.70;;;;;;5039109;27;87268;-50
2023/11/09 07:49:30;;;;;;;;;;;9.40;67.70;;;;;;5029057;28;89535;-55
2023/11/09 07:51:58;;;;;;;;;;;9.40;67.70;;;;;;5034169;27;87762;-53
2023/11/09 07:54:29;;;;;;;;;;;9.50;67.80;;;;;;5035040;28;88155;-50
2023/11/09 07:56:55;;;;;;;;;;;9.50;67.80;;;;;;5033673;28;89501;-56
2023/11/09 07:59:23;;;;;;;;;;;9.40;67.70;;;;;;5037012;27;87253;-47
2023/11/09 08:01:49;;;;;;;;;;;9.40;67.90;;;;;;5037151;28;87699;-55
2023/11/09 08:04:14;;;;;;;;;;;9.40;67.80;;;;;;5030308;28;89613;-54
2023/11/09 08:06:42;;;;;;;;;;;9.40;67.90;;;;;;5036100;28;88794;-52
2023/11/09 08:09:09;;;;;;;;;;;9.40;67.70;;;;;;5029973;28;89875;-54
2023/11/09 08:11:35;;;;;;;;;;;9.40;67.80;;;;;;5031142;27;86471;-55
2023/11/09 08:14:01;;;;;;;;;;;9.30;67.80;;;;;;5035549;28;87031;-55
2023/11/09 08:16:26;;;;;;;;;;;9.40;68.00;;;;;;5029132;28;87969;-53
2023/11/09 08:18:54;;;;;;;;;;;9.40;68.60;;;;;;5035580;28;89182;-52
2023/11/09 08:21:20;;;;;;;;;;;9.40;68.10;;;;;;5037192;28;88876;-50
2023/11/09 08:23:46;;;;;;;;;;;9.40;68.00;;;;;;5035492;28;87864;-51
2023/11/09 08:26:11;;;;;;;;;;;9.40;68.20;;;;;;5033406;28;87566;-53
2023/11/09 08:28:37;;;;;;;;;;;9.30;68.20;;;;;;5030939;28;88677;-51
2023/11/09 08:31:04;;;;;;;;;;;9.30;68.10;;;;;;5037072;27;87849;-51
2023/11/09 08:33:29;;;;;;;;;;;9.30;68.40;;;;;;5033570;28;88850;-52
2023/11/09 08:35:55;;;;;;;;;;;9.40;68.30;;;;;;5032618;28;86497;-53
2023/11/09 08:38:22;;;;;;;;;;;9.30;68.30;;;;;;5032804;27;87164;-49
2023/11/09 08:40:51;;;;;;;;;;;9.30;68.40;;;;;;5031296;28;87346;-47
2023/11/09 08:43:16;;;;;;;;;;;9.30;68.60;;;;;;5035852;27;90394;-51
2023/11/09 08:45:42;;;;;;;;;;;9.30;69.20;;;;;;5034168;27;88864;-49
2023/11/09 08:48:09;;;;;;;;;;;9.30;68.60;;;;;;5032809;28;88839;-56
2023/11/09 08:50:38;;;;;;;;;;;9.20;68.70;;;;;;5034373;27;89774;-49
2023/11/09 08:53:04;;;;;;;;;;;9.30;68.60;;;;;;5037819;28;88770;-54
2023/11/09 08:55:30;;;;;;;;;;;9.20;68.60;;;;;;5027886;28;88241;-55
2023/11/09 08:57:58;;;;;;;;;;;9.20;68.80;;;;;;5031508;27;87163;-50
2023/11/09 09:00:24;;;;;;;;;;;9.20;68.80;;;;;;5032676;27;87500;-51
2023/11/09 09:02:49;;;;;;;;;;;9.20;68.80;;;;;;5032930;28;89457;-49
2023/11/09 09:05:19;;;;;;;;;;;9.20;68.80;;;;;;5030174;27;88307;-49
2023/11/09 09:07:49;;;;;;;;;;;9.20;68.70;;;;;;5025052;28;88877;-54
2023/11/09 09:10:16;;;;;;;;;;;9.30;68.90;;;;;;5034134;28;89585;-52
2023/11/09 09:12:45;;;;;;;;;;;9.20;68.90;;;;;;5035635;28;87176;-52
2023/11/09 09:15:16;;;;;;;;;;;9.20;69.00;;;;;;5030356;28;88495;-55
2023/11/09 09:17:48;;;;;;;;;;;9.20;69.00;;;;;;5031358;27;87649;-55
2023/11/09 09:20:21;;;;;;;;;;;9.20;69.00;;;;;;5035001;28;87003;-56
2023/11/09 09:22:48;;;;;;;;;;;9.20;68.90;;;;;;5030144;28;87835;-52
2023/11/09 09:25:14;;;;;;;;;;;9.20;69.00;;;;;;5028996;27;86366;-54
2023/11/09 09:27:42;;;;;;;;;;;9.20;68.80;;;;;;5035387;28;88282;-53
2023/11/09 09:30:10;;;;;;;;;;;9.30;68.80;;;;;;5030781;28;87167;-51
2023/11/09 09:32:43;;;;;;;;;;;9.20;68.70;;;;;;5031152;28;88149;-56
2023/11/09 09:35:10;;;;;;;;;;;9.20;68.80;;;;;;5031322;27;89795;-56
2023/11/09 09:37:37;;;;;;;;;;;9.20;68.80;;;;;;5033018;28;87213;-55
2023/11/09 09:40:17;;;;;;;;;;;9.20;68.80;;;;;;5031783;27;87023;-54
2023/11/09 09:42:46;;;;;;;;;;;9.30;68.90;;;;;;5031679;28;89297;-53
2023/11/09 09:45:22;;;;;;;;;;;9.20;68.70;;;;;;5032131;28;88937;-54
2023/11/09 09:47:53;;;;;;;;;;;9.20;69.40;;;;;;5030531;28;87151;-48
2023/11/09 09:50:40;;;;;;;;;;;9.20;68.90;;;;;;5032069;28;88858;-54
2023/11/09 09:53:09;;;;;;;;;;;9.20;69.00;;;;;;5030899;28;89597;-54
2023/11/09 09:55:35;;;;;;;;;;;9.20;68.80;;;;;;5032548;27;87382;-50
2023/11/09 09:58:03;;;;;;;;;;;9.20;69.10;;;;;;5030957;27;88602;-52
2023/11/09 10:00:31;;;;;;;;;;;9.20;68.80;;;;;;5035096;28;89927;-50
2023/11/09 10:02:57;;;;;;;;;;;9.20;68.90;;;;;;5033030;28;87433;-50
2023/11/09 10:05:27;;;;;;;;;;;9.20;69.00;;;;;;5029994;27;87200;-51
2023/11/09 10:08:02;;;;;;;;;;;9.20;68.90;;;;;;5027294;27;88561;-53
2023/11/09 10:10:32;;;;;;;;;;;9.20;68.90;;;;;;5026677;28;89589;-54
2023/11/09 10:13:07;;;;;;;;;;;9.20;68.90;;;;;;5031539;28;88229;-56
2023/11/09 10:15:33;;;;;;;;;;;9.20;68.80;;;;;;5031052;28;89161;-56
2023/11/09 10:18:00;;;;;;;;;;;9.20;68.90;;;;;;5038546;27;89201;-50
2023/11/09 10:20:26;;;;;;;;;;;9.20;68.90;;;;;;5030211;28;87356;-51
2023/11/09 10:22:55;;;;;;;;;;;9.20;68.80;;;;;;5036464;27;89087;-57
2023/11/09 10:25:26;;;;;;;;;;;9.20;68.80;;;;;;5029303;28;87162;-56
2023/11/09 10:27:59;;;;;;;;;;;9.30;68.90;;;;;;5029959;27;88688;-50
2023/11/09 10:30:25;;;;;;;;;;;9.30;68.90;;;;;;5024730;28;89554;-51
2023/11/09 10:32:59;;;;;;;;;;;9.20;69.00;;;;;;5031516;27;87216;-52
2023/11/09 10:35:25;;;;;;;;;;;9.30;69.10;;;;;;5030734;28;87492;-54
2023/11/09 10:37:51;;;;;;;;;;;9.30;69.20;;;;;;5031067;28;88308;-53
2023/11/09 10:40:17;;;;;;;;;;;9.20;69.10;;;;;;5037616;28;86797;-55
2023/11/09 10:42:43;;;;;;;;;;;9.20;68.90;;;;;;5037187;27;89345;-49
2023/11/09 10:45:10;;;;;;;;;;;9.30;69.10;;;;;;5034911;27;87188;-53
2023/11/09 10:47:40;;;;;;;;;;;9.30;69.20;;;;;;5033684;28;88682;-55
2023/11/09 10:50:14;;;;;;;;;;;9.20;69.20;;;;;;5033246;28;88036;-51
2023/11/09 10:52:43;;;;;;;;;;;9.30;69.20;;;;;;5029931;28;87219;-57
2023/11/09 10:55:10;;;;;;;;;;;9.30;69.00;;;;;;5031769;28;88443;-53
2023/11/09 10:57:43;;;;;;;;;;;9.30;69.10;;;;;;5028354;27;87760;-53
2023/11/09 11:00:16;;;;;;;;;;;9.30;69.10;;;;;;5031743;27;88820;-56
2023/11/09 11:02:51;;;;;;;;;;;9.30;69.20;;;;;;5031825;27;88003;-56
2023/11/09 11:05:18;;;;;;;;;;;9.30;69.00;;;;;;5035193;28;86346;-54
2023/11/09 11:07:44;;;;;;;;;;;9.30;69.10;;;;;;5030591;27;87738;-56
2023/11/09 11:10:16;;;;;;;;;;;9.30;69.00;;;;;;5030396;28;89433;-52
2023/11/09 11:12:43;;;;;;;;;;;9.30;69.10;;;;;;5029043;27;88105;-53
2023/11/09 11:15:10;;;;;;;;;;;9.30;68.90;;;;;;5032010;28;89806;-51
2023/11/09 11:17:45;;;;;;;;;;;9.30;69.00;;;;;;5032487;27;89978;-49
2023/11/09 11:20:29;;;;;;;;;;;9.30;69.00;;;;;;5030659;28;87308;-52
2023/11/09 11:22:55;;;;;;;;;;;9.30;68.90;;;;;;5030890;28;87674;-51
2023/11/09 11:25:36;;;;;;;;;;;9.30;69.50;;;;;;5028329;28;89161;-52
2023/11/09 11:28:03;;;;;;;;;;;9.30;69.00;;;;;;5029835;28;88607;-55
2023/11/09 11:30:32;;;;;;;;;;;9.30;69.00;;;;;;5029967;28;87991;-49
2023/11/09 11:32:59;;;;;;;;;;;9.30;69.00;;;;;;5031497;28;87238;-57
2023/11/09 11:35:39;;;;;;;;;;;9.30;69.00;;;;;;5033148;27;88786;-55
2023/11/09 11:38:13;;;;;;;;;;;9.30;69.70;;;;;;5029675;27;90579;-54
2023/11/09 11:40:39;;;;;;;;;;;9.30;69.00;;;;;;5027834;27;87189;-50
2023/11/09 11:43:05;;;;;;;;;;;9.30;68.90;;;;;;5035514;28;87367;-52
2023/11/09 11:45:31;;;;;;;;;;;9.30;69.20;;;;;;5039578;28;89386;-54
2023/11/09 11:47:58;;;;;;;;;;;9.30;69.20;;;;;;5035511;28;87639;-54
2023/11/09 11:50:24;;;;;;;;;;;9.40;69.10;;;;;;5035909;28;89548;-51
2023/11/09 11:52:49;;;;;;;;;;;9.30;69.10;;;;;;5032297;27;87684;-55
2023/11/09 11:55:18;;;;;;;;;;;9.30;69.20;;;;;;5030757;28;87444;-54
2023/11/09 11:58:13;;;;;;;;;;;9.30;69.20;;;;;;5035923;28;87194;-52
2023/11/09 12:00:42;;;;;;;;;;;9.30;69.20;;;;;;5021885;28;87437;-51
2023/11/09 12:03:11;;;;;;;;;;;9.40;69.20;;;;;;5029888;28;88665;-50
2023/11/09 12:05:40;;;;;;;;;;;9.40;69.10;;;;;;5031895;28;88163;-54
2023/11/09 12:08:11;;;;;;;;;;;9.30;69.10;;;;;;5038916;28;87374;-53
2023/11/09 12:10:41;;;;;;;;;;;9.40;69.10;;;;;;5033073;28;88253;-55
2023/11/09 12:13:09;;;;;;;;;;;9.40;69.20;;;;;;5031858;28;87268;-57
2023/11/09 12:15:35;;;;;;;;;;;9.40;69.00;;;;;;5033293;28;87599;-56
2023/11/09 12:18:02;;;;;;;;;;;9.40;68.90;;;;;;5034596;28;87964;-52
2023/11/09 12:20:30;;;;;;;;;;;9.40;69.00;;;;;;5031489;27;86664;-49
2023/11/09 12:22:58;;;;;;;;;;;9.40;68.90;;;;;;5036200;27;87118;-57
2023/11/09 12:25:28;;;;;;;;;;;9.40;68.90;;;;;;5028075;28;88034;-50
2023/11/09 12:28:00;;;;;;;;;;;9.40;68.90;;;;;;5030708;28;88277;-50
2023/11/09 12:30:25;;;;;;;;;;;9.40;69.00;;;;;;5036123;28;88095;-54
2023/11/09 12:32:54;;;;;;;;;;;9.40;68.90;;;;;;5036421;27;88889;-52
2023/11/09 12:35:20;;;;;;;;;;;9.40;68.90;;;;;;5039121;28;88189;-54
2023/11/09 12:37:55;;;;;;;;;;;9.40;68.80;;;;;;5031385;28;89472;-52
2023/11/09 12:40:23;;;;;;;;;;;9.40;68.90;;;;;;5034888;27;87967;-56
2023/11/09 12:42:48;;;;;;;;;;;9.40;68.90;;;;;;5035415;28;88821;-51
2023/11/09 12:45:17;;;;;;;;;;;9.40;68.90;;;;;;5038296;28;87874;-53
2023/11/09 12:47:43;;;;;;;;;;;9.40;68.90;;;;;;5032406;28;87190;-50
2023/11/09 12:50:16;;;;;;;;;;;9.40;69.00;;;;;;5033515;28;87051;-49
2023/11/09 12:52:42;;;;;;;;;;;9.40;68.90;;;;;;5035010;27;89511;-52
2023/11/09 12:55:08;;;;;;;;;;;9.40;68.80;;;;;;5033084;27;87914;-51
2023/11/09 12:57:36;;;;;;;;;;;9.50;68.80;;;;;;5029260;28;88094;-51
2023/11/09 13:00:04;;;;;;;;;;;9.50;68.80;;;;;;5032097;28;87182;-55
2023/11/09 13:02:42;;;;;;;;;;;9.40;68.90;;;;;;5036201;28;87933;-54
2023/11/09 13:05:09;;;;;;;;;;;9.40;68.90;;;;;;5036439;28;89621;-53
2023/11/09 13:07:35;;;;;;;;;;;9.50;68.90;;;;;;5038074;28;87167;-53
2023/11/09 13:10:19;;;;;;;;;;;9.40;68.90;;;;;;5033496;28;87790;-53
2023/11/09 13:12:47;;;;;;;;;;;9.40;68.90;;;;;;5035557;27;89437;-50
2023/11/09 13:17:58;;;;;;;;;;;9.40;68.90;;;;;;5028889;28;89243;-53
2023/11/09 13:20:28;;;;;;;;;;;9.50;69.10;;;;;;5028126;28;87200;-53
2023/11/09 13:23:06;;;;;;;;;;;9.50;69.00;;;;;;5029043;28;89211;-51
2023/11/09 13:25:35;;;;;;;;;;;9.50;69.00;;;;;;5036125;28;88098;-57
2023/11/09 13:28:01;;;;;;;;;;;9.50;69.00;;;;;;5033628;27;88708;-51
2023/11/09 13:30:27;;;;;;;;;;;9.50;69.00;;;;;;5034639;28;87326;-56
2023/11/09 13:33:02;;;;;;;;;;;9.50;69.10;;;;;;5030795;28;87963;-53
2023/11/09 13:35:37;;;;;;;;;;;9.50;69.00;;;;;;5030234;28;86882;-50
2023/11/09 13:38:07;;;;;;;;;;;9.50;69.00;;;;;;5029100;28;87351;-53
2023/11/09 13:40:38;;;;;;;;;;;9.50;69.10;;;;;;5035695;27;87238;-52
2023/11/09 13:43:11;;;;;;;;;;;9.50;69.10;;;;;;5033923;28;88086;-54
2023/11/09 13:45:40;;;;;;;;;;;9.50;69.00;;;;;;5035490;27;89565;-54
2023/11/09 13:48:12;;;;;;;;;;;9.50;69.00;;;;;;5037507;28;87170;-56
2023/11/09 13:50:45;;;;;;;;;;;9.50;69.00;;;;;;5030867;28;88900;-53
2023/11/09 13:53:16;;;;;;;;;;;9.60;69.00;;;;;;5027639;28;88086;-51
2023/11/09 13:55:59;;;;;;;;;;;9.50;69.00;;;;;;5030128;27;87186;-55
2023/11/09 13:58:24;;;;;;;;;;;9.50;69.30;;;;;;5028947;28;88678;-56
2023/11/09 14:00:54;;;;;;;;;;;9.60;69.10;;;;;;5034187;27;88107;-53
2023/11/09 14:03:20;;;;;;;;;;;9.50;69.10;;;;;;5030663;27;88467;-54
2023/11/09 14:05:48;;;;;;;;;;;9.60;69.10;;;;;;5031214;28;89350;-53
2023/11/09 14:08:18;;;;;;;;;;;9.60;69.10;;;;;;5028594;28;88114;-51
2023/11/09 14:10:48;;;;;;;;;;;9.60;69.20;;;;;;5035998;28;89711;-52
2023/11/09 14:13:28;;;;;;;;;;;9.60;69.20;;;;;;5032472;28;87895;-51
2023/11/09 14:16:06;;;;;;;;;;;9.60;69.30;;;;;;5030335;28;87822;-51
2023/11/09 14:21:17;;;;;;;;;;;9.60;69.30;;;;;;5035284;27;88013;-53
2023/11/09 14:23:46;;;;;;;;;;;9.60;69.30;;;;;;5031880;28;88721;-56
2023/11/09 14:26:12;;;;;;;;;;;9.60;69.30;;;;;;5030891;28;87348;-53
2023/11/09 14:28:37;;;;;;;;;;;9.60;69.20;;;;;;5030839;28;87152;-51
2023/11/09 14:31:07;;;;;;;;;;;9.60;69.30;;;;;;5028932;28;87928;-54
2023/11/09 14:33:36;;;;;;;;;;;9.60;69.10;;;;;;5031807;27;90538;-52
2023/11/09 14:36:04;;;;;;;;;;;9.70;69.10;;;;;;5030054;28;87492;-52
2023/11/09 14:38:30;;;;;;;;;;;9.70;69.10;;;;;;5032111;28;88439;-54
2023/11/09 14:40:57;;;;;;;;;;;9.70;69.20;;;;;;5030704;28;87914;-53
2023/11/09 14:43:23;;;;;;;;;;;9.60;69.10;;;;;;5035562;27;88859;-54